createdAt,value
2018-09-06T00:02:56.514Z,19.10
2018-09-06T00:06:01.346Z,19.00
2018-09-06T00:09:07.667Z,18.90
2018-09-06T00:12:11.783Z,19.00
2018-09-06T00:15:16.166Z,18.90
2018-09-06T00:18:20.334Z,18.80
2018-09-06T00:21:24.661Z,18.80
2018-09-06T00:24:28.994Z,18.80
2018-09-06T00:27:34.586Z,18.70
2018-09-06T00:30:39.046Z,18.60
2018-09-06T00:33:43.511Z,18.60
2018-09-06T00:36:48.640Z,18.60
2018-09-06T00:39:52.873Z,18.50
2018-09-06T00:42:57.180Z,18.50
2018-09-06T00:46:01.507Z,18.50
2018-09-06T00:49:05.861Z,18.50
2018-09-06T00:52:10.157Z,18.40
2018-09-06T00:55:14.268Z,18.30
2018-09-06T00:58:18.691Z,18.30
2018-09-06T01:01:23.265Z,18.30
2018-09-06T01:04:27.580Z,18.30
2018-09-06T01:07:32.103Z,18.20
2018-09-06T01:10:37.175Z,18.20
2018-09-06T01:13:41.666Z,18.10
2018-09-06T01:16:46.606Z,18.10
2018-09-06T01:19:50.968Z,18.00
2018-09-06T01:22:55.055Z,18.00
2018-09-06T01:25:59.340Z,18.00
2018-09-06T01:29:03.791Z,18.00
2018-09-06T01:32:08.000Z,18.00
2018-09-06T01:35:12.257Z,17.90
2018-09-06T01:38:16.658Z,17.90
2018-09-06T01:41:20.940Z,17.80
2018-09-06T01:44:25.680Z,17.80
2018-09-06T01:47:30.126Z,17.70
2018-09-06T01:50:34.782Z,17.70
2018-09-06T01:53:39.097Z,17.60
2018-09-06T01:56:43.426Z,17.60
2018-09-06T01:59:47.798Z,17.60
2018-09-06T02:02:52.159Z,17.50
2018-09-06T02:05:56.467Z,17.50
2018-09-06T02:09:00.911Z,17.40
2018-09-06T02:12:05.240Z,17.30
2018-09-06T02:15:09.565Z,17.20
2018-09-06T02:18:13.875Z,17.20
2018-09-06T02:21:18.051Z,17.10
2018-09-06T02:24:22.422Z,17.10
2018-09-06T02:27:26.677Z,17.10
2018-09-06T02:30:31.134Z,17.10
2018-09-06T02:33:35.229Z,17.10
2018-09-06T02:36:39.685Z,17.10
2018-09-06T02:39:44.100Z,17.20
2018-09-06T02:42:48.529Z,17.10
2018-09-06T02:45:52.841Z,17.10
2018-09-06T02:48:57.335Z,17.00
2018-09-06T02:52:01.593Z,17.00
2018-09-06T02:55:05.933Z,17.00
2018-09-06T02:58:10.283Z,17.00
2018-09-06T03:01:14.636Z,17.00
2018-09-06T03:04:19.000Z,17.00
2018-09-06T03:07:23.350Z,17.00
2018-09-06T03:10:30.990Z,17.00
2018-09-06T03:13:35.406Z,16.90
2018-09-06T03:16:40.225Z,16.90
2018-09-06T03:19:44.450Z,17.00
2018-09-06T03:22:48.809Z,17.00
2018-09-06T03:25:53.294Z,16.90
2018-09-06T03:28:57.573Z,17.00
2018-09-06T03:32:02.265Z,17.00
2018-09-06T03:35:06.479Z,17.00
2018-09-06T03:38:10.807Z,17.00
2018-09-06T03:41:15.079Z,17.00
2018-09-06T03:44:19.375Z,17.00
2018-09-06T03:47:23.540Z,17.00
2018-09-06T03:50:34.549Z,17.00
2018-09-06T03:53:39.028Z,17.00
2018-09-06T03:56:43.379Z,16.90
2018-09-06T03:59:47.820Z,16.90
2018-09-06T04:02:52.320Z,16.90
2018-09-06T04:05:56.606Z,16.90
2018-09-06T04:09:00.808Z,16.90
2018-09-06T04:12:04.997Z,16.90
2018-09-06T04:15:09.299Z,16.90
2018-09-06T04:18:13.742Z,16.90
2018-09-06T04:21:18.132Z,16.80
2018-09-06T04:24:22.496Z,16.90
2018-09-06T04:27:26.662Z,16.90
2018-09-06T04:30:31.235Z,16.90
2018-09-06T04:33:35.801Z,16.90
2018-09-06T04:36:40.142Z,16.90
2018-09-06T04:39:44.569Z,16.90
2018-09-06T04:42:48.883Z,17.00
2018-09-06T04:45:53.204Z,17.00
2018-09-06T04:48:57.374Z,16.90
2018-09-06T04:52:01.543Z,16.80
2018-09-06T04:55:06.000Z,16.90
2018-09-06T04:58:10.141Z,17.00
2018-09-06T05:01:14.433Z,17.00
2018-09-06T05:04:18.508Z,17.00
2018-09-06T05:07:22.972Z,17.10
2018-09-06T05:10:27.274Z,17.20
2018-09-06T05:13:31.545Z,17.20
2018-09-06T05:16:35.841Z,17.30
2018-09-06T05:19:40.208Z,17.40
2018-09-06T05:22:44.701Z,17.50
2018-09-06T05:25:49.047Z,17.70
2018-09-06T05:28:55.632Z,17.80
2018-09-06T05:32:00.987Z,17.90
2018-09-06T05:35:05.368Z,18.00
2018-09-06T05:38:10.032Z,17.90
2018-09-06T05:41:14.415Z,18.00
2018-09-06T05:44:18.689Z,18.00
2018-09-06T05:47:23.449Z,18.10
2018-09-06T05:50:29.479Z,18.20
2018-09-06T05:53:34.029Z,18.30
2018-09-06T05:56:38.604Z,18.40
2018-09-06T05:59:43.038Z,18.60
2018-09-06T06:02:48.425Z,18.80
2018-09-06T06:05:52.777Z,19.00
2018-09-06T06:08:56.845Z,19.20
2018-09-06T06:12:01.096Z,19.40
2018-09-06T06:15:05.463Z,19.50
2018-09-06T06:18:09.752Z,19.60
2018-09-06T06:21:14.005Z,19.60
2018-09-06T06:24:18.158Z,19.70
2018-09-06T06:27:22.332Z,19.80
2018-09-06T06:30:26.743Z,19.70
2018-09-06T06:33:30.887Z,19.90
2018-09-06T06:36:35.129Z,20.00
2018-09-06T06:39:39.326Z,20.20
2018-09-06T06:42:43.630Z,20.40
2018-09-06T06:45:47.790Z,21.20
2018-09-06T06:48:51.672Z,22.10
2018-09-06T06:51:56.007Z,22.70
2018-09-06T06:55:00.279Z,23.20
2018-09-06T06:58:04.430Z,23.20
2018-09-06T07:01:08.581Z,23.30
2018-09-06T07:04:12.996Z,23.20
2018-09-06T07:07:17.293Z,23.70
2018-09-06T07:10:21.728Z,24.70
2018-09-06T07:13:25.869Z,26.30
2018-09-06T07:16:30.349Z,27.20
2018-09-06T07:19:34.670Z,27.10
2018-09-06T07:22:38.886Z,26.50
2018-09-06T07:25:43.366Z,25.90
2018-09-06T07:28:47.738Z,25.40
2018-09-06T07:31:52.100Z,25.00
2018-09-06T07:34:57.305Z,24.80
2018-09-06T07:38:01.414Z,24.60
2018-09-06T07:41:05.605Z,24.60
2018-09-06T07:44:09.935Z,24.40
2018-09-06T07:47:14.165Z,24.30
2018-09-06T07:50:18.366Z,24.20
2018-09-06T07:53:22.597Z,24.20
2018-09-06T07:56:27.041Z,24.40
2018-09-06T07:59:31.353Z,24.70
2018-09-06T08:02:35.641Z,25.70
2018-09-06T08:05:40.523Z,29.10
2018-09-06T08:08:44.622Z,32.20
2018-09-06T08:11:49.529Z,34.30
2018-09-06T08:14:53.800Z,36.70
2018-09-06T08:17:58.082Z,39.10
2018-09-06T08:21:02.604Z,41.00
2018-09-06T08:24:06.920Z,42.80
2018-09-06T08:27:11.385Z,44.50
2018-09-06T08:30:15.708Z,45.30
2018-09-06T08:33:19.895Z,45.40
2018-09-06T08:36:24.373Z,45.40
2018-09-06T08:39:28.574Z,45.60
2018-09-06T08:42:33.026Z,46.50
2018-09-06T08:45:37.541Z,47.20
2018-09-06T08:48:41.727Z,47.60
2018-09-06T08:51:46.217Z,48.40
2018-09-06T08:54:50.790Z,48.90
2018-09-06T08:57:55.239Z,48.90
2018-09-06T09:01:04.553Z,48.50
2018-09-06T09:04:09.095Z,48.20
2018-09-06T09:07:13.742Z,49.20
2018-09-06T09:10:18.066Z,50.50
2018-09-06T09:13:22.418Z,51.00
2018-09-06T09:16:26.892Z,50.80
2018-09-06T09:19:31.916Z,50.90
2018-09-06T09:22:36.241Z,51.70
2018-09-06T09:25:40.824Z,51.70
2018-09-06T09:28:45.076Z,51.00
2018-09-06T09:31:49.630Z,49.50
2018-09-06T09:34:55.903Z,48.50
2018-09-06T09:38:00.344Z,47.90
2018-09-06T09:41:04.954Z,48.10
2018-09-06T09:44:09.271Z,47.10
2018-09-06T09:53:20.169Z,46.80
2018-09-06T09:56:24.400Z,46.20
2018-09-06T09:59:28.875Z,44.80
2018-09-06T10:02:38.358Z,43.60
2018-09-06T10:05:45.124Z,42.00
2018-09-06T10:08:54.799Z,39.90
2018-09-06T10:11:59.030Z,38.40
2018-09-06T10:15:03.562Z,37.40
2018-09-06T10:18:08.304Z,36.10
2018-09-06T10:21:12.632Z,34.80
2018-09-06T10:24:17.066Z,33.80
2018-09-06T10:27:21.361Z,33.50
2018-09-06T10:30:26.939Z,33.00
2018-09-06T10:33:31.365Z,32.70
2018-09-06T10:36:35.254Z,32.30
2018-09-06T10:39:39.773Z,31.80
2018-09-06T10:42:44.055Z,31.50
2018-09-06T10:45:48.563Z,31.10
2018-09-06T10:48:52.517Z,31.20
2018-09-06T10:51:56.562Z,31.20
2018-09-06T10:55:00.495Z,31.30
2018-09-06T10:58:04.486Z,31.40
2018-09-06T11:01:14.033Z,31.30
2018-09-06T11:04:18.275Z,31.30
2018-09-06T11:07:22.866Z,31.40
2018-09-06T11:10:27.525Z,31.20
2018-09-06T11:13:32.411Z,30.40
2018-09-06T11:16:36.978Z,29.90
2018-09-06T11:19:41.283Z,30.20
2018-09-06T11:22:45.730Z,30.40
2018-09-06T11:25:50.096Z,30.20
2018-09-06T11:28:54.564Z,30.20
2018-09-06T11:31:59.723Z,29.90
2018-09-06T11:35:04.090Z,30.10
2018-09-06T11:38:08.363Z,30.30
2018-09-06T11:41:13.877Z,30.30
2018-09-06T11:44:18.387Z,30.30
2018-09-06T11:47:22.730Z,29.90
2018-09-06T11:50:27.066Z,29.60
2018-09-06T11:53:31.613Z,30.10
2018-09-06T11:56:35.937Z,30.60
2018-09-06T11:59:40.349Z,30.50
2018-09-06T12:02:44.576Z,30.40
2018-09-06T12:05:48.905Z,30.40
2018-09-06T12:08:53.308Z,30.70
2018-09-06T12:11:57.555Z,30.90
2018-09-06T12:15:01.976Z,30.60
2018-09-06T12:18:06.395Z,30.60
2018-09-06T12:21:11.102Z,30.80
2018-09-06T12:24:15.570Z,30.30
2018-09-06T12:27:20.582Z,30.30
2018-09-06T12:30:25.123Z,30.60
2018-09-06T12:33:29.533Z,30.20
2018-09-06T12:36:34.648Z,30.10
2018-09-06T12:39:39.013Z,29.80
2018-09-06T12:42:44.082Z,29.80
2018-09-06T12:45:48.399Z,29.80
2018-09-06T12:49:02.341Z,30.10
2018-09-06T12:52:07.308Z,30.10
2018-09-06T12:55:11.679Z,30.00
2018-09-06T12:58:16.097Z,30.00
2018-09-06T13:01:20.191Z,30.20
2018-09-06T13:04:24.405Z,30.20
2018-09-06T13:07:28.709Z,30.30
2018-09-06T13:10:32.982Z,30.10
2018-09-06T13:13:37.409Z,30.10
2018-09-06T13:16:41.824Z,30.10
2018-09-06T13:19:46.035Z,29.60
2018-09-06T13:22:50.296Z,29.70
2018-09-06T13:25:54.636Z,29.90
2018-09-06T13:28:59.132Z,30.00
2018-09-06T13:32:03.354Z,30.10
2018-09-06T13:35:07.738Z,30.30
2018-09-06T13:38:11.941Z,30.20
2018-09-06T13:41:16.884Z,29.50
2018-09-06T13:44:21.121Z,29.40
2018-09-06T13:47:25.236Z,29.20
2018-09-06T13:50:29.443Z,29.00
2018-09-06T13:53:33.769Z,29.00
2018-09-06T13:56:38.072Z,28.90
2018-09-06T13:59:42.194Z,28.90
2018-09-06T14:02:47.625Z,28.90
2018-09-06T14:05:51.794Z,28.50
2018-09-06T14:08:56.056Z,28.20
2018-09-06T14:12:00.945Z,28.40
2018-09-06T14:15:05.286Z,28.10
2018-09-06T14:18:09.684Z,28.00
2018-09-06T14:21:13.949Z,27.90
2018-09-06T14:24:18.180Z,28.00
2018-09-06T14:27:22.374Z,28.20
2018-09-06T14:30:26.985Z,28.00
2018-09-06T14:33:31.324Z,27.90
2018-09-06T14:36:35.671Z,28.10
2018-09-06T14:39:39.995Z,28.20
2018-09-06T14:42:44.476Z,28.10
2018-09-06T14:45:48.716Z,27.90
2018-09-06T14:48:53.222Z,27.90
2018-09-06T14:51:58.081Z,27.60
2018-09-06T14:55:02.287Z,27.60
2018-09-06T14:58:06.614Z,27.70
2018-09-06T15:01:10.864Z,27.70
2018-09-06T15:04:15.111Z,27.60
2018-09-06T15:07:19.557Z,27.60
2018-09-06T15:10:23.839Z,27.70
2018-09-06T15:13:28.155Z,27.80
2018-09-06T15:16:32.954Z,27.60
2018-09-06T15:19:37.258Z,27.30
2018-09-06T15:22:41.623Z,27.30
2018-09-06T15:25:45.992Z,27.20
2018-09-06T15:28:50.248Z,27.10
2018-09-06T15:31:54.866Z,27.00
2018-09-06T15:34:59.280Z,26.90
2018-09-06T15:38:03.753Z,26.90
2018-09-06T15:41:08.057Z,26.90
2018-09-06T15:44:12.381Z,27.00
2018-09-06T15:47:16.719Z,27.00
2018-09-06T15:50:21.643Z,26.80
2018-09-06T15:53:25.972Z,26.80
2018-09-06T15:56:30.070Z,26.80
2018-09-06T15:59:34.188Z,26.80
2018-09-06T16:02:38.795Z,26.80
2018-09-06T16:05:43.096Z,26.70
2018-09-06T16:08:47.409Z,26.60
2018-09-06T16:11:51.763Z,26.50
2018-09-06T16:14:56.370Z,26.50
2018-09-06T16:18:00.989Z,26.40
2018-09-06T16:21:05.195Z,26.30
2018-09-06T16:24:09.649Z,26.30
2018-09-06T16:27:13.784Z,26.30
2018-09-06T16:30:18.442Z,26.10
2018-09-06T16:33:22.532Z,26.00
2018-09-06T16:36:33.481Z,25.90
2018-09-06T16:39:37.563Z,25.90
2018-09-06T16:42:41.842Z,25.80
2018-09-06T16:45:46.109Z,25.60
2018-09-06T16:48:50.518Z,25.50
2018-09-06T16:51:54.804Z,25.50
2018-09-06T16:54:59.032Z,25.40
2018-09-06T16:58:03.422Z,25.40
2018-09-06T17:01:07.741Z,25.40
2018-09-06T17:04:11.972Z,25.30
2018-09-06T17:07:16.282Z,25.20
2018-09-06T17:10:22.530Z,25.20
2018-09-06T17:13:26.606Z,25.20
2018-09-06T17:16:31.000Z,25.10
2018-09-06T17:19:35.662Z,25.00
2018-09-06T17:22:39.875Z,25.00
2018-09-06T17:25:44.215Z,25.00
2018-09-06T17:28:48.575Z,24.90
2018-09-06T17:31:52.875Z,24.90
2018-09-06T17:34:57.115Z,24.80
2018-09-06T17:38:01.442Z,24.80
2018-09-06T17:41:06.445Z,24.70
2018-09-06T17:44:12.092Z,24.60
2018-09-06T17:47:16.620Z,24.60
2018-09-06T17:50:21.146Z,24.60
2018-09-06T17:53:25.604Z,24.50
2018-09-06T17:56:31.633Z,24.40
2018-09-06T17:59:42.149Z,24.40
2018-09-06T18:02:46.661Z,24.30
2018-09-06T18:05:52.040Z,24.30
2018-09-06T18:08:56.779Z,24.20
2018-09-06T18:12:02.197Z,24.10
2018-09-06T18:15:07.030Z,24.00
2018-09-06T18:18:11.214Z,24.00
2018-09-06T18:21:16.232Z,23.90
2018-09-06T18:24:20.703Z,23.80
2018-09-06T18:27:25.235Z,23.80
2018-09-06T18:30:29.610Z,23.70
2018-09-06T18:33:39.389Z,23.60
2018-09-06T18:36:44.912Z,23.50
2018-09-06T18:43:02.505Z,23.40
2018-09-06T18:46:08.268Z,23.40
2018-09-06T18:49:13.582Z,23.30
2018-09-06T18:52:18.249Z,23.20
2018-09-06T18:55:24.261Z,23.20
2018-09-06T18:58:29.272Z,23.00
2018-09-06T19:01:33.716Z,22.90
2018-09-06T19:04:38.908Z,22.90
2018-09-06T19:07:43.167Z,22.80
2018-09-06T19:10:47.484Z,22.70
2018-09-06T19:13:52.058Z,22.60
2018-09-06T19:16:56.621Z,22.50
2018-09-06T19:20:01.131Z,22.40
2018-09-06T19:23:05.736Z,22.50
2018-09-06T19:26:09.988Z,22.40
2018-09-06T19:29:14.395Z,22.40
2018-09-06T19:32:18.599Z,22.40
2018-09-06T19:35:23.200Z,22.50
2018-09-06T19:38:27.561Z,22.40
2018-09-06T19:41:31.738Z,22.40
2018-09-06T19:44:36.063Z,22.40
2018-09-06T19:47:40.357Z,22.30
2018-09-06T19:50:44.721Z,22.30
2018-09-06T19:53:49.078Z,22.20
2018-09-06T19:56:53.558Z,22.20
2018-09-06T19:59:57.980Z,22.20
2018-09-06T20:03:02.499Z,22.20
2018-09-06T20:06:06.776Z,22.30
2018-09-06T20:09:11.230Z,22.30
2018-09-06T20:12:15.551Z,22.30
2018-09-06T20:15:20.002Z,22.30
2018-09-06T20:18:24.443Z,22.20
2018-09-06T20:21:28.711Z,22.20
2018-09-06T20:24:32.997Z,22.10
2018-09-06T20:27:37.490Z,22.10
2018-09-06T20:30:41.906Z,22.10
2018-09-06T20:33:46.309Z,22.10
2018-09-06T20:36:50.365Z,22.00
2018-09-06T20:39:54.410Z,22.00
2018-09-06T20:42:59.113Z,22.00
2018-09-06T20:46:03.594Z,21.90
2018-09-06T20:49:08.065Z,21.90
2018-09-06T20:52:12.362Z,21.80
2018-09-06T20:55:16.684Z,21.90
2018-09-06T20:58:21.118Z,21.90
2018-09-06T21:01:25.410Z,21.90
2018-09-06T21:04:29.686Z,21.90
2018-09-06T21:07:34.385Z,21.90
2018-09-06T21:10:38.683Z,21.90
2018-09-06T21:13:42.794Z,21.90
2018-09-06T21:16:46.925Z,21.80
2018-09-06T21:19:51.240Z,21.80
2018-09-06T21:22:55.557Z,21.80
2018-09-06T21:25:59.497Z,21.80
2018-09-06T21:29:03.689Z,21.80
2018-09-06T21:32:08.082Z,21.80
2018-09-06T21:35:12.397Z,21.80
2018-09-06T21:38:16.805Z,21.80
2018-09-06T21:41:20.894Z,21.70
2018-09-06T21:44:25.246Z,21.70
2018-09-06T21:47:29.534Z,21.60
2018-09-06T21:50:33.921Z,21.60
2018-09-06T21:53:38.236Z,21.60
2018-09-06T21:56:42.550Z,21.50
2018-09-06T21:59:46.686Z,21.50
2018-09-06T22:02:56.939Z,21.50
2018-09-06T22:06:00.901Z,21.60
2018-09-06T22:09:07.235Z,21.50
2018-09-06T22:12:18.378Z,21.50
2018-09-06T22:15:22.634Z,21.50
2018-09-06T22:18:27.127Z,21.40
2018-09-06T22:21:31.284Z,21.40
2018-09-06T22:24:35.653Z,21.40
2018-09-06T22:27:39.926Z,21.40
2018-09-06T22:30:44.233Z,21.30
2018-09-06T22:33:48.642Z,21.30
2018-09-06T22:36:52.918Z,21.30
2018-09-06T22:39:57.220Z,21.20
2018-09-06T22:43:01.544Z,21.20
2018-09-06T22:46:06.197Z,21.10
2018-09-06T22:49:10.507Z,21.00
2018-09-06T22:52:14.889Z,21.00
2018-09-06T22:55:19.204Z,21.00
2018-09-06T22:58:23.513Z,21.00
2018-09-06T23:01:27.892Z,21.00
2018-09-06T23:04:32.357Z,21.00
2018-09-06T23:07:36.645Z,20.90
2018-09-06T23:10:40.999Z,20.90
2018-09-06T23:13:45.213Z,20.90
2018-09-06T23:16:49.474Z,21.00
2018-09-06T23:19:53.658Z,21.00
2018-09-06T23:22:57.901Z,20.90
2018-09-06T23:26:02.147Z,20.90
2018-09-06T23:29:06.339Z,20.90
2018-09-06T23:32:10.391Z,20.90
2018-09-06T23:35:14.529Z,20.80
2018-09-06T23:38:19.666Z,20.80
2018-09-06T23:41:24.028Z,20.70
2018-09-06T23:44:28.293Z,20.70
2018-09-06T23:47:32.675Z,20.70
2018-09-06T23:50:36.956Z,20.60
2018-09-06T23:53:41.303Z,20.70
2018-09-06T23:56:45.631Z,20.70
2018-09-06T23:59:49.934Z,20.70
